sensor_id;sensor_type;location;lat;lon;timestamp;pressure;altitude;pressure_sealevel;temperature;humidity
64698;BME280;51124;53.394;-6.294;2023-08-17T00:02:14;101467.46;;;24.96;9.96
64698;BME280;51124;53.394;-6.294;2023-08-17T00:04:47;101471.94;;;23.60;10.26
64698;BME280;51124;53.394;-6.294;2023-08-17T00:07:23;101470.52;;;26.24;10.48
64698;BME280;51124;53.394;-6.294;2023-08-17T00:09:48;101471.60;;;27.08;11.26
64698;BME280;51124;53.394;-6.294;2023-08-17T00:12:14;101474.38;;;26.08;11.90
64698;BME280;51124;53.394;-6.294;2023-08-17T00:14:39;101475.12;;;23.83;12.18
64698;BME280;51124;53.394;-6.294;2023-08-17T00:17:04;101474.87;;;23.69;11.82
64698;BME280;51124;53.394;-6.294;2023-08-17T00:19:29;101477.09;;;25.37;11.52
64698;BME280;51124;53.394;-6.294;2023-08-17T00:21:55;101479.92;;;26.83;11.75
64698;BME280;51124;53.394;-6.294;2023-08-17T00:24:20;101478.56;;;26.12;12.02
64698;BME280;51124;53.394;-6.294;2023-08-17T00:26:46;101473.66;;;25.93;12.35
64698;BME280;51124;53.394;-6.294;2023-08-17T00:29:11;101473.44;;;25.79;12.20
64698;BME280;51124;53.394;-6.294;2023-08-17T00:31:36;101473.58;;;26.55;12.41
64698;BME280;51124;53.394;-6.294;2023-08-17T00:34:02;101475.07;;;25.62;12.58
64698;BME280;51124;53.394;-6.294;2023-08-17T00:36:27;101479.61;;;26.14;12.76
64698;BME280;51124;53.394;-6.294;2023-08-17T00:38:52;101474.06;;;25.31;12.95
64698;BME280;51124;53.394;-6.294;2023-08-17T00:41:18;101471.90;;;25.83;12.80
64698;BME280;51124;53.394;-6.294;2023-08-17T00:43:43;101468.92;;;25.24;12.84
64698;BME280;51124;53.394;-6.294;2023-08-17T00:46:09;101466.32;;;25.48;13.03
64698;BME280;51124;53.394;-6.294;2023-08-17T00:48:35;101463.63;;;25.25;12.98
64698;BME280;51124;53.394;-6.294;2023-08-17T00:51:01;101459.39;;;25.29;13.05
64698;BME280;51124;53.394;-6.294;2023-08-17T00:53:28;101458.12;;;25.65;13.01
64698;BME280;51124;53.394;-6.294;2023-08-17T00:55:55;101453.28;;;25.55;12.93
64698;BME280;51124;53.394;-6.294;2023-08-17T00:58:21;101455.27;;;25.11;13.18
64698;BME280;51124;53.394;-6.294;2023-08-17T01:00:47;101449.87;;;24.80;13.36
64698;BME280;51124;53.394;-6.294;2023-08-17T01:03:12;101447.18;;;24.87;13.33
64698;BME280;51124;53.394;-6.294;2023-08-17T01:05:38;101451.73;;;24.02;13.17
64698;BME280;51124;53.394;-6.294;2023-08-17T01:08:04;101443.71;;;23.59;12.57
64698;BME280;51124;53.394;-6.294;2023-08-17T01:10:34;101437.86;;;23.37;12.13
64698;BME280;51124;53.394;-6.294;2023-08-17T01:13:05;101435.16;;;23.30;11.81
64698;BME280;51124;53.394;-6.294;2023-08-17T01:15:36;101432.05;;;23.88;11.50
64698;BME280;51124;53.394;-6.294;2023-08-17T01:18:14;101429.82;;;23.03;11.39
64698;BME280;51124;53.394;-6.294;2023-08-17T01:20:31;101429.23;;;22.81;11.00
64698;BME280;51124;53.394;-6.294;2023-08-17T01:23:02;101423.27;;;22.42;11.11
64698;BME280;51124;53.394;-6.294;2023-08-17T01:25:29;101419.89;;;23.44;10.87
64698;BME280;51124;53.394;-6.294;2023-08-17T01:27:54;101421.41;;;22.93;10.92
64698;BME280;51124;53.394;-6.294;2023-08-17T01:30:19;101419.86;;;23.04;10.69
64698;BME280;51124;53.394;-6.294;2023-08-17T01:32:50;101424.68;;;23.47;10.49
64698;BME280;51124;53.394;-6.294;2023-08-17T01:35:21;101419.12;;;23.37;10.50
64698;BME280;51124;53.394;-6.294;2023-08-17T01:37:52;101421.38;;;22.76;10.66
64698;BME280;51124;53.394;-6.294;2023-08-17T01:40:18;101422.20;;;23.59;10.42
64698;BME280;51124;53.394;-6.294;2023-08-17T01:42:44;101420.11;;;22.86;10.68
64698;BME280;51124;53.394;-6.294;2023-08-17T01:45:10;101421.73;;;22.47;10.55
64698;BME280;51124;53.394;-6.294;2023-08-17T01:47:36;101414.51;;;23.01;10.41
64698;BME280;51124;53.394;-6.294;2023-08-17T01:50:01;101413.89;;;23.16;10.41
64698;BME280;51124;53.394;-6.294;2023-08-17T01:52:27;101411.42;;;23.49;10.30
64698;BME280;51124;53.394;-6.294;2023-08-17T01:54:53;101410.21;;;23.32;10.32
64698;BME280;51124;53.394;-6.294;2023-08-17T01:57:18;101408.01;;;23.53;10.26
64698;BME280;51124;53.394;-6.294;2023-08-17T01:59:43;101404.82;;;23.65;10.15
64698;BME280;51124;53.394;-6.294;2023-08-17T02:02:08;101407.41;;;23.34;10.28
64698;BME280;51124;53.394;-6.294;2023-08-17T02:04:33;101406.80;;;24.09;10.28
64698;BME280;51124;53.394;-6.294;2023-08-17T02:06:59;101408.77;;;23.03;10.37
64698;BME280;51124;53.394;-6.294;2023-08-17T02:09:24;101408.96;;;23.01;10.35
64698;BME280;51124;53.394;-6.294;2023-08-17T02:11:49;101403.49;;;22.79;10.29
64698;BME280;51124;53.394;-6.294;2023-08-17T02:14:14;101403.09;;;22.78;10.36
64698;BME280;51124;53.394;-6.294;2023-08-17T02:16:39;101398.52;;;23.67;10.04
64698;BME280;51124;53.394;-6.294;2023-08-17T02:19:04;101401.01;;;23.17;10.25
64698;BME280;51124;53.394;-6.294;2023-08-17T02:21:30;101402.99;;;22.62;10.50
64698;BME280;51124;53.394;-6.294;2023-08-17T02:23:55;101400.89;;;23.94;10.13
64698;BME280;51124;53.394;-6.294;2023-08-17T02:26:20;101404.37;;;22.18;10.36
64698;BME280;51124;53.394;-6.294;2023-08-17T02:28:45;101401.59;;;22.89;10.26
64698;BME280;51124;53.394;-6.294;2023-08-17T02:31:10;101403.12;;;23.05;10.47
64698;BME280;51124;53.394;-6.294;2023-08-17T02:33:35;101398.20;;;23.63;10.32
64698;BME280;51124;53.394;-6.294;2023-08-17T02:36:00;101393.73;;;23.26;10.20
64698;BME280;51124;53.394;-6.294;2023-08-17T02:38:26;101399.33;;;23.11;10.34
64698;BME280;51124;53.394;-6.294;2023-08-17T02:40:51;101400.33;;;23.08;10.31
64698;BME280;51124;53.394;-6.294;2023-08-17T02:43:16;101401.13;;;22.46;10.47
64698;BME280;51124;53.394;-6.294;2023-08-17T02:45:41;101395.12;;;23.43;10.25
64698;BME280;51124;53.394;-6.294;2023-08-17T02:48:07;101398.38;;;21.98;10.33
64698;BME280;51124;53.394;-6.294;2023-08-17T02:50:32;101393.41;;;24.23;10.36
64698;BME280;51124;53.394;-6.294;2023-08-17T02:52:57;101394.68;;;23.46;10.43
64698;BME280;51124;53.394;-6.294;2023-08-17T02:55:22;101390.50;;;22.89;10.39
64698;BME280;51124;53.394;-6.294;2023-08-17T02:57:47;101386.91;;;22.52;10.27
64698;BME280;51124;53.394;-6.294;2023-08-17T03:00:14;101382.08;;;23.06;10.28
64698;BME280;51124;53.394;-6.294;2023-08-17T03:02:39;101385.45;;;23.18;10.02
64698;BME280;51124;53.394;-6.294;2023-08-17T03:05:04;101378.69;;;22.85;10.04
64698;BME280;51124;53.394;-6.294;2023-08-17T03:07:30;101374.26;;;24.73;10.49
64698;BME280;51124;53.394;-6.294;2023-08-17T03:09:55;101367.10;;;25.08;10.60
64698;BME280;51124;53.394;-6.294;2023-08-17T03:12:20;101365.81;;;22.82;10.94
64698;BME280;51124;53.394;-6.294;2023-08-17T03:14:46;101359.63;;;25.89;10.81
64698;BME280;51124;53.394;-6.294;2023-08-17T03:17:11;101355.00;;;26.77;11.33
64698;BME280;51124;53.394;-6.294;2023-08-17T03:19:36;101352.40;;;25.54;11.98
64698;BME280;51124;53.394;-6.294;2023-08-17T03:22:01;101348.27;;;25.06;12.24
64698;BME280;51124;53.394;-6.294;2023-08-17T03:24:27;101349.20;;;25.36;12.44
64698;BME280;51124;53.394;-6.294;2023-08-17T03:26:52;101351.24;;;25.32;12.64
64698;BME280;51124;53.394;-6.294;2023-08-17T03:29:18;101353.51;;;25.14;12.66
64698;BME280;51124;53.394;-6.294;2023-08-17T03:31:43;101352.13;;;24.28;12.82
64698;BME280;51124;53.394;-6.294;2023-08-17T03:34:08;101349.97;;;25.30;12.91
64698;BME280;51124;53.394;-6.294;2023-08-17T03:36:34;101344.58;;;25.05;12.84
64698;BME280;51124;53.394;-6.294;2023-08-17T03:38:59;101343.61;;;25.26;12.53
64698;BME280;51124;53.394;-6.294;2023-08-17T03:41:25;101345.03;;;25.10;12.61
64698;BME280;51124;53.394;-6.294;2023-08-17T03:43:50;101344.08;;;25.05;12.62
64698;BME280;51124;53.394;-6.294;2023-08-17T03:46:16;101340.36;;;25.46;12.59
64698;BME280;51124;53.394;-6.294;2023-08-17T03:48:41;101339.83;;;24.92;12.88
64698;BME280;51124;53.394;-6.294;2023-08-17T03:51:07;101332.46;;;25.70;12.65
64698;BME280;51124;53.394;-6.294;2023-08-17T03:53:32;101331.67;;;24.94;12.75
64698;BME280;51124;53.394;-6.294;2023-08-17T03:55:58;101331.76;;;25.84;12.81
64698;BME280;51124;53.394;-6.294;2023-08-17T03:58:23;101330.63;;;24.90;12.98
64698;BME280;51124;53.394;-6.294;2023-08-17T04:00:50;101334.75;;;24.65;13.14
64698;BME280;51124;53.394;-6.294;2023-08-17T04:03:16;101335.45;;;25.02;12.99
64698;BME280;51124;53.394;-6.294;2023-08-17T04:05:41;101337.60;;;22.64;13.15
64698;BME280;51124;53.394;-6.294;2023-08-17T04:08:06;101335.05;;;23.14;12.37
64698;BME280;51124;53.394;-6.294;2023-08-17T04:10:31;101337.32;;;22.43;12.10
64698;BME280;51124;53.394;-6.294;2023-08-17T04:12:57;101337.25;;;22.96;11.62
64698;BME280;51124;53.394;-6.294;2023-08-17T04:15:22;101339.89;;;23.77;11.34
64698;BME280;51124;53.394;-6.294;2023-08-17T04:17:47;101338.00;;;23.39;11.23
64698;BME280;51124;53.394;-6.294;2023-08-17T04:20:12;101335.77;;;22.32;10.97
64698;BME280;51124;53.394;-6.294;2023-08-17T04:22:37;101333.04;;;22.45;10.79
64698;BME280;51124;53.394;-6.294;2023-08-17T04:25:03;101338.11;;;22.97;10.80
64698;BME280;51124;53.394;-6.294;2023-08-17T04:27:28;101334.61;;;22.79;10.83
64698;BME280;51124;53.394;-6.294;2023-08-17T04:29:53;101329.32;;;23.46;10.56
64698;BME280;51124;53.394;-6.294;2023-08-17T04:32:18;101329.55;;;22.52;10.61
64698;BME280;51124;53.394;-6.294;2023-08-17T04:34:44;101326.88;;;22.96;10.60
64698;BME280;51124;53.394;-6.294;2023-08-17T04:37:09;101323.45;;;23.24;10.46
64698;BME280;51124;53.394;-6.294;2023-08-17T04:39:35;101318.11;;;23.03;10.52
64698;BME280;51124;53.394;-6.294;2023-08-17T04:42:00;101316.11;;;23.06;10.32
64698;BME280;51124;53.394;-6.294;2023-08-17T04:44:25;101313.51;;;23.17;10.25
64698;BME280;51124;53.394;-6.294;2023-08-17T04:46:50;101312.11;;;22.61;10.30
64698;BME280;51124;53.394;-6.294;2023-08-17T04:49:15;101312.44;;;23.00;10.07
64698;BME280;51124;53.394;-6.294;2023-08-17T04:51:41;101305.60;;;22.86;9.90
64698;BME280;51124;53.394;-6.294;2023-08-17T04:54:06;101301.12;;;22.98;9.84
64698;BME280;51124;53.394;-6.294;2023-08-17T04:56:31;101298.90;;;23.23;9.75
64698;BME280;51124;53.394;-6.294;2023-08-17T04:58:56;101303.86;;;23.24;10.02
64698;BME280;51124;53.394;-6.294;2023-08-17T05:01:21;101295.44;;;22.99;10.05
64698;BME280;51124;53.394;-6.294;2023-08-17T05:03:47;101291.58;;;23.39;9.79
64698;BME280;51124;53.394;-6.294;2023-08-17T05:06:12;101291.10;;;23.18;9.94
64698;BME280;51124;53.394;-6.294;2023-08-17T05:08:37;101281.88;;;23.48;9.92
64698;BME280;51124;53.394;-6.294;2023-08-17T05:11:02;101279.90;;;23.16;9.99
64698;BME280;51124;53.394;-6.294;2023-08-17T05:13:27;101278.02;;;23.36;10.03
64698;BME280;51124;53.394;-6.294;2023-08-17T05:15:53;101273.89;;;23.33;10.13
64698;BME280;51124;53.394;-6.294;2023-08-17T05:18:18;101277.55;;;23.24;10.32
64698;BME280;51124;53.394;-6.294;2023-08-17T05:20:43;101280.30;;;22.26;10.34
64698;BME280;51124;53.394;-6.294;2023-08-17T05:23:08;101282.16;;;23.05;10.23
64698;BME280;51124;53.394;-6.294;2023-08-17T05:25:33;101283.74;;;22.80;10.12
64698;BME280;51124;53.394;-6.294;2023-08-17T05:27:59;101274.99;;;23.64;9.99
64698;BME280;51124;53.394;-6.294;2023-08-17T05:30:24;101275.90;;;23.43;9.92
64698;BME280;51124;53.394;-6.294;2023-08-17T05:32:49;101273.66;;;23.81;9.66
64698;BME280;51124;53.394;-6.294;2023-08-17T05:35:14;101276.88;;;23.17;9.82
64698;BME280;51124;53.394;-6.294;2023-08-17T05:37:39;101276.17;;;23.66;9.82
64698;BME280;51124;53.394;-6.294;2023-08-17T05:40:05;101280.09;;;22.60;10.14
64698;BME280;51124;53.394;-6.294;2023-08-17T05:42:31;101277.28;;;23.29;9.82
64698;BME280;51124;53.394;-6.294;2023-08-17T05:44:56;101271.99;;;23.68;9.69
64698;BME280;51124;53.394;-6.294;2023-08-17T05:47:21;101271.68;;;23.88;9.70
64698;BME280;51124;53.394;-6.294;2023-08-17T05:49:46;101271.26;;;23.63;9.80
64698;BME280;51124;53.394;-6.294;2023-08-17T05:52:12;101270.91;;;23.55;10.00
64698;BME280;51124;53.394;-6.294;2023-08-17T05:54:38;101267.72;;;23.54;10.02
64698;BME280;51124;53.394;-6.294;2023-08-17T05:57:03;101266.56;;;23.41;10.01
64698;BME280;51124;53.394;-6.294;2023-08-17T05:59:28;101270.66;;;23.26;9.87
64698;BME280;51124;53.394;-6.294;2023-08-17T06:01:51;101269.64;;;23.25;9.77
64698;BME280;51124;53.394;-6.294;2023-08-17T06:04:25;101267.47;;;23.09;9.76
64698;BME280;51124;53.394;-6.294;2023-08-17T06:06:58;101265.38;;;24.79;9.60
64698;BME280;51124;53.394;-6.294;2023-08-17T06:09:32;101266.87;;;24.95;10.44
64698;BME280;51124;53.394;-6.294;2023-08-17T06:12:05;101270.44;;;24.05;10.77
64698;BME280;51124;53.394;-6.294;2023-08-17T06:14:39;101264.07;;;23.38;10.62
64698;BME280;51124;53.394;-6.294;2023-08-17T06:17:12;101263.77;;;27.10;10.43
64698;BME280;51124;53.394;-6.294;2023-08-17T06:19:46;101264.06;;;26.30;11.31
64698;BME280;51124;53.394;-6.294;2023-08-17T06:22:19;101262.58;;;26.04;11.56
64698;BME280;51124;53.394;-6.294;2023-08-17T06:24:53;101264.87;;;25.80;11.83
64698;BME280;51124;53.394;-6.294;2023-08-17T06:27:27;101266.26;;;24.63;12.42
64698;BME280;51124;53.394;-6.294;2023-08-17T06:30:00;101265.78;;;25.27;12.24
64698;BME280;51124;53.394;-6.294;2023-08-17T06:32:33;101257.62;;;25.14;12.53
64698;BME280;51124;53.394;-6.294;2023-08-17T06:35:07;101255.08;;;25.45;12.53
64698;BME280;51124;53.394;-6.294;2023-08-17T06:37:41;101252.25;;;25.25;12.27
64698;BME280;51124;53.394;-6.294;2023-08-17T06:40:15;101255.44;;;26.43;11.92
64698;BME280;51124;53.394;-6.294;2023-08-17T06:42:48;101258.18;;;25.75;11.93
64698;BME280;51124;53.394;-6.294;2023-08-17T06:45:21;101260.06;;;25.78;12.17
64698;BME280;51124;53.394;-6.294;2023-08-17T06:47:55;101256.80;;;25.26;12.61
64698;BME280;51124;53.394;-6.294;2023-08-17T06:50:29;101254.22;;;24.84;12.43
64698;BME280;51124;53.394;-6.294;2023-08-17T06:53:02;101257.39;;;25.45;12.51
64698;BME280;51124;53.394;-6.294;2023-08-17T06:55:36;101254.21;;;25.65;12.44
64698;BME280;51124;53.394;-6.294;2023-08-17T06:58:09;101254.94;;;25.43;12.39
64698;BME280;51124;53.394;-6.294;2023-08-17T07:00:43;101256.15;;;25.26;12.45
64698;BME280;51124;53.394;-6.294;2023-08-17T07:03:17;101246.02;;;25.54;12.49
64698;BME280;51124;53.394;-6.294;2023-08-17T07:05:50;101242.16;;;24.58;12.70
64698;BME280;51124;53.394;-6.294;2023-08-17T07:08:24;101230.50;;;23.15;12.29
64698;BME280;51124;53.394;-6.294;2023-08-17T07:10:59;101227.72;;;23.67;11.74
64698;BME280;51124;53.394;-6.294;2023-08-17T07:13:22;101224.18;;;23.17;11.33
64698;BME280;51124;53.394;-6.294;2023-08-17T07:15:56;101220.75;;;23.58;10.82
64698;BME280;51124;53.394;-6.294;2023-08-17T07:18:29;101222.72;;;24.99;10.66
64698;BME280;51124;53.394;-6.294;2023-08-17T07:21:02;101222.53;;;23.13;10.73
64698;BME280;51124;53.394;-6.294;2023-08-17T07:23:36;101217.21;;;23.52;10.59
64698;BME280;51124;53.394;-6.294;2023-08-17T07:26:09;101213.46;;;23.44;10.49
64698;BME280;51124;53.394;-6.294;2023-08-17T07:28:42;101219.19;;;22.86;10.88
64698;BME280;51124;53.394;-6.294;2023-08-17T07:31:15;101213.79;;;23.97;10.76
64698;BME280;51124;53.394;-6.294;2023-08-17T07:33:49;101222.34;;;23.22;10.86
64698;BME280;51124;53.394;-6.294;2023-08-17T07:36:22;101222.07;;;22.89;10.68
64698;BME280;51124;53.394;-6.294;2023-08-17T07:38:55;101224.24;;;23.52;10.41
64698;BME280;51124;53.394;-6.294;2023-08-17T07:41:29;101223.98;;;24.02;10.47
64698;BME280;51124;53.394;-6.294;2023-08-17T07:44:02;101211.41;;;23.94;10.10
64698;BME280;51124;53.394;-6.294;2023-08-17T07:46:36;101206.22;;;23.80;9.94
64698;BME280;51124;53.394;-6.294;2023-08-17T07:49:09;101202.22;;;24.12;10.05
64698;BME280;51124;53.394;-6.294;2023-08-17T07:51:42;101199.35;;;23.01;10.30
64698;BME280;51124;53.394;-6.294;2023-08-17T07:54:16;101201.90;;;23.48;10.21
64698;BME280;51124;53.394;-6.294;2023-08-17T07:56:49;101198.44;;;23.21;10.23
64698;BME280;51124;53.394;-6.294;2023-08-17T07:59:22;101198.04;;;24.11;9.97
64698;BME280;51124;53.394;-6.294;2023-08-17T08:01:58;101194.72;;;23.56;10.06
64698;BME280;51124;53.394;-6.294;2023-08-17T08:04:23;101198.69;;;22.92;10.35
64698;BME280;51124;53.394;-6.294;2023-08-17T08:06:46;101194.09;;;23.68;10.02
64698;BME280;51124;53.394;-6.294;2023-08-17T08:09:19;101186.93;;;23.49;10.29
64698;BME280;51124;53.394;-6.294;2023-08-17T08:11:53;101179.86;;;23.49;10.16
64698;BME280;51124;53.394;-6.294;2023-08-17T08:14:46;101182.56;;;24.17;10.15
64698;BME280;51124;53.394;-6.294;2023-08-17T08:17:19;101190.21;;;23.70;10.12
64698;BME280;51124;53.394;-6.294;2023-08-17T08:19:53;101185.56;;;23.96;10.07
64698;BME280;51124;53.394;-6.294;2023-08-17T08:22:26;101178.63;;;24.21;10.35
64698;BME280;51124;53.394;-6.294;2023-08-17T08:24:59;101180.49;;;23.98;10.27
64698;BME280;51124;53.394;-6.294;2023-08-17T08:27:33;101179.92;;;23.56;10.31
64698;BME280;51124;53.394;-6.294;2023-08-17T08:30:07;101175.85;;;23.55;10.25
64698;BME280;51124;53.394;-6.294;2023-08-17T08:32:40;101174.99;;;24.32;9.87
64698;BME280;51124;53.394;-6.294;2023-08-17T08:35:13;101175.94;;;25.00;9.84
64698;BME280;51124;53.394;-6.294;2023-08-17T08:37:47;101172.47;;;24.26;10.06
64698;BME280;51124;53.394;-6.294;2023-08-17T08:40:26;101173.92;;;24.11;10.02
64698;BME280;51124;53.394;-6.294;2023-08-17T08:42:50;101174.89;;;24.63;10.07
64698;BME280;51124;53.394;-6.294;2023-08-17T08:45:23;101173.75;;;23.96;10.15
64698;BME280;51124;53.394;-6.294;2023-08-17T08:48:00;101176.31;;;24.31;10.11
64698;BME280;51124;53.394;-6.294;2023-08-17T08:50:26;101178.86;;;24.30;10.09
64698;BME280;51124;53.394;-6.294;2023-08-17T08:52:58;101181.79;;;24.83;9.91
64698;BME280;51124;53.394;-6.294;2023-08-17T08:55:23;101181.09;;;24.83;10.17
64698;BME280;51124;53.394;-6.294;2023-08-17T08:57:58;101182.56;;;24.77;9.92
64698;BME280;51124;53.394;-6.294;2023-08-17T09:00:33;101182.03;;;24.04;10.05
64698;BME280;51124;53.394;-6.294;2023-08-17T09:03:09;101183.41;;;24.28;9.95
64698;BME280;51124;53.394;-6.294;2023-08-17T09:05:35;101183.50;;;24.87;10.11
64698;BME280;51124;53.394;-6.294;2023-08-17T09:08:01;101182.42;;;24.03;10.10
64698;BME280;51124;53.394;-6.294;2023-08-17T09:10:25;101188.08;;;24.99;9.88
64698;BME280;51124;53.394;-6.294;2023-08-17T09:12:58;101188.32;;;26.41;10.18
64698;BME280;51124;53.394;-6.294;2023-08-17T09:15:32;101189.81;;;26.78;10.43
64698;BME280;51124;53.394;-6.294;2023-08-17T09:18:05;101192.44;;;25.07;10.61
64698;BME280;51124;53.394;-6.294;2023-08-17T09:20:40;101184.41;;;27.72;10.75
64698;BME280;51124;53.394;-6.294;2023-08-17T09:23:04;101185.15;;;27.96;11.16
64698;BME280;51124;53.394;-6.294;2023-08-17T09:25:32;101184.83;;;26.76;11.69
64698;BME280;51124;53.394;-6.294;2023-08-17T09:28:07;101181.91;;;27.69;12.04
64698;BME280;51124;53.394;-6.294;2023-08-17T09:30:31;101176.05;;;26.78;12.19
64698;BME280;51124;53.394;-6.294;2023-08-17T09:33:05;101177.06;;;26.86;12.15
64698;BME280;51124;53.394;-6.294;2023-08-17T09:35:41;101178.65;;;27.34;12.09
64698;BME280;51124;53.394;-6.294;2023-08-17T09:38:05;101175.58;;;25.81;12.18
64698;BME280;51124;53.394;-6.294;2023-08-17T09:40:39;101165.36;;;25.68;12.07
64698;BME280;51124;53.394;-6.294;2023-08-17T09:43:13;101162.34;;;26.54;11.90
64698;BME280;51124;53.394;-6.294;2023-08-17T09:45:48;101159.05;;;27.48;11.95
64698;BME280;51124;53.394;-6.294;2023-08-17T09:48:22;101153.09;;;27.75;11.95
64698;BME280;51124;53.394;-6.294;2023-08-17T09:50:48;101154.92;;;27.65;11.90
64698;BME280;51124;53.394;-6.294;2023-08-17T09:53:26;101151.83;;;26.60;12.18
64698;BME280;51124;53.394;-6.294;2023-08-17T09:55:50;101147.69;;;26.69;11.83
64698;BME280;51124;53.394;-6.294;2023-08-17T09:58:23;101148.58;;;27.70;11.72
64698;BME280;51124;53.394;-6.294;2023-08-17T10:00:58;101140.75;;;27.38;11.48
64698;BME280;51124;53.394;-6.294;2023-08-17T10:03:27;101144.14;;;27.97;11.45
64698;BME280;51124;53.394;-6.294;2023-08-17T10:05:54;101149.67;;;28.29;11.34
64698;BME280;51124;53.394;-6.294;2023-08-17T10:08:20;101145.14;;;27.10;10.82
64698;BME280;51124;53.394;-6.294;2023-08-17T10:10:54;101148.09;;;25.67;10.54
64698;BME280;51124;53.394;-6.294;2023-08-17T10:13:33;101141.58;;;24.76;9.66
64698;BME280;51124;53.394;-6.294;2023-08-17T10:16:02;101131.09;;;25.18;8.88
64698;BME280;51124;53.394;-6.294;2023-08-17T10:18:37;101128.40;;;25.46;8.84
64698;BME280;51124;53.394;-6.294;2023-08-17T10:21:02;101127.97;;;27.11;8.45
64698;BME280;51124;53.394;-6.294;2023-08-17T10:23:37;101126.93;;;25.48;8.62
64698;BME280;51124;53.394;-6.294;2023-08-17T10:26:10;101129.20;;;25.77;8.33
64698;BME280;51124;53.394;-6.294;2023-08-17T10:28:45;101118.10;;;25.38;8.47
64698;BME280;51124;53.394;-6.294;2023-08-17T10:31:19;101111.29;;;24.84;8.07
64698;BME280;51124;53.394;-6.294;2023-08-17T10:33:52;101111.70;;;25.76;8.07
64698;BME280;51124;53.394;-6.294;2023-08-17T10:36:26;101111.99;;;26.59;7.78
64698;BME280;51124;53.394;-6.294;2023-08-17T10:39:31;101113.82;;;24.77;8.17
64698;BME280;51124;53.394;-6.294;2023-08-17T10:41:46;101111.86;;;25.65;7.95
64698;BME280;51124;53.394;-6.294;2023-08-17T10:44:09;101106.80;;;27.18;7.39
64698;BME280;51124;53.394;-6.294;2023-08-17T10:46:42;101108.56;;;24.84;7.75
64698;BME280;51124;53.394;-6.294;2023-08-17T10:49:27;101095.01;;;26.89;7.24
64698;BME280;51124;53.394;-6.294;2023-08-17T10:52:00;101101.35;;;26.33;7.39
64698;BME280;51124;53.394;-6.294;2023-08-17T10:54:36;101096.48;;;26.44;7.34
64698;BME280;51124;53.394;-6.294;2023-08-17T10:56:59;101103.02;;;26.04;7.52
64698;BME280;51124;53.394;-6.294;2023-08-17T10:59:32;101098.78;;;26.11;7.48
64698;BME280;51124;53.394;-6.294;2023-08-17T11:02:06;101097.48;;;27.36;7.44
64698;BME280;51124;53.394;-6.294;2023-08-17T11:04:51;101094.95;;;26.24;7.49
64698;BME280;51124;53.394;-6.294;2023-08-17T11:07:14;101092.60;;;26.12;7.53
64698;BME280;51124;53.394;-6.294;2023-08-17T11:09:39;101086.38;;;26.81;7.40
64698;BME280;51124;53.394;-6.294;2023-08-17T11:12:03;101101.01;;;25.87;7.53
64698;BME280;51124;53.394;-6.294;2023-08-17T11:14:38;101102.60;;;26.16;7.54
64698;BME280;51124;53.394;-6.294;2023-08-17T11:17:04;101093.65;;;26.44;7.27
64698;BME280;51124;53.394;-6.294;2023-08-17T11:19:27;101100.97;;;25.42;7.41
64698;BME280;51124;53.394;-6.294;2023-08-17T11:22:00;101099.76;;;26.72;7.38
64698;BME280;51124;53.394;-6.294;2023-08-17T11:24:35;101101.75;;;31.04;7.75
64698;BME280;51124;53.394;-6.294;2023-08-17T11:27:00;101100.23;;;29.36;8.33
64698;BME280;51124;53.394;-6.294;2023-08-17T11:29:34;101097.98;;;26.23;7.98
64698;BME280;51124;53.394;-6.294;2023-08-17T11:32:08;101096.14;;;26.49;7.55
64698;BME280;51124;53.394;-6.294;2023-08-17T11:34:42;101098.79;;;26.30;7.32
64698;BME280;51124;53.394;-6.294;2023-08-17T11:37:16;101098.24;;;26.83;6.87
64698;BME280;51124;53.394;-6.294;2023-08-17T11:39:49;101090.64;;;27.58;6.95
64698;BME280;51124;53.394;-6.294;2023-08-17T11:42:22;101104.02;;;25.68;7.59
64698;BME280;51124;53.394;-6.294;2023-08-17T11:44:56;101100.65;;;23.49;8.15
64698;BME280;51124;53.394;-6.294;2023-08-17T11:47:29;101102.21;;;24.18;8.13
64698;BME280;51124;53.394;-6.294;2023-08-17T11:50:04;101100.84;;;23.28;8.58
64698;BME280;51124;53.394;-6.294;2023-08-17T11:52:38;101103.26;;;23.32;8.45
64698;BME280;51124;53.394;-6.294;2023-08-17T11:55:13;101090.02;;;24.61;8.12
64698;BME280;51124;53.394;-6.294;2023-08-17T11:57:38;101092.02;;;24.85;7.93
64698;BME280;51124;53.394;-6.294;2023-08-17T12:00:18;101090.01;;;23.04;8.38
64698;BME280;51124;53.394;-6.294;2023-08-17T12:02:42;101085.66;;;24.84;8.24
64698;BME280;51124;53.394;-6.294;2023-08-17T12:05:22;101084.45;;;25.59;8.04
64698;BME280;51124;53.394;-6.294;2023-08-17T12:07:48;101077.54;;;26.97;7.52
64698;BME280;51124;53.394;-6.294;2023-08-17T12:10:13;101075.51;;;26.92;7.54
64698;BME280;51124;53.394;-6.294;2023-08-17T12:12:36;101079.97;;;26.00;7.88
64698;BME280;51124;53.394;-6.294;2023-08-17T12:15:12;101079.64;;;26.50;7.89
64698;BME280;51124;53.394;-6.294;2023-08-17T12:17:35;101076.17;;;26.53;8.10
64698;BME280;51124;53.394;-6.294;2023-08-17T12:20:04;101076.36;;;28.39;8.44
64698;BME280;51124;53.394;-6.294;2023-08-17T12:22:39;101083.85;;;28.13;9.08
64698;BME280;51124;53.394;-6.294;2023-08-17T12:25:13;101083.13;;;27.01;9.11
64698;BME280;51124;53.394;-6.294;2023-08-17T12:27:47;101082.21;;;29.69;9.20
64698;BME280;51124;53.394;-6.294;2023-08-17T12:30:26;101077.86;;;29.91;9.80
64698;BME280;51124;53.394;-6.294;2023-08-17T12:32:49;101079.87;;;29.46;10.00
64698;BME280;51124;53.394;-6.294;2023-08-17T12:35:23;101081.74;;;29.66;10.03
64698;BME280;51124;53.394;-6.294;2023-08-17T12:37:57;101074.30;;;29.40;10.15
64698;BME280;51124;53.394;-6.294;2023-08-17T12:40:30;101069.39;;;29.71;10.27
64698;BME280;51124;53.394;-6.294;2023-08-17T12:43:04;101069.96;;;29.30;10.50
64698;BME280;51124;53.394;-6.294;2023-08-17T12:45:37;101071.01;;;29.46;10.30
64698;BME280;51124;53.394;-6.294;2023-08-17T12:48:11;101072.02;;;29.55;10.36
64698;BME280;51124;53.394;-6.294;2023-08-17T12:50:44;101065.04;;;29.54;10.51
64698;BME280;51124;53.394;-6.294;2023-08-17T12:53:18;101069.18;;;29.67;10.57